createdAt,value
2023-04-25T00:00:40.517Z,98151.25
2023-04-25T00:01:42.314Z,98136.78
2023-04-25T00:02:44.229Z,98151.72
2023-04-25T00:03:47.405Z,98153.31
2023-04-25T00:04:50.116Z,98145.94
2023-04-25T00:05:52.955Z,98143.63
2023-04-25T00:06:55.595Z,98134.31
2023-04-25T00:07:58.514Z,98142.19
2023-04-25T00:09:00.300Z,98140.34
2023-04-25T00:10:02.138Z,98134.66
2023-04-25T00:11:03.993Z,98127.97
2023-04-25T00:12:06.166Z,98125.09
2023-04-25T00:13:09.305Z,98123.34
2023-04-25T00:14:11.092Z,98114.50
2023-04-25T00:15:13.232Z,98116.66
2023-04-25T00:16:16.641Z,98120.19
2023-04-25T00:17:18.461Z,98118.81
2023-04-25T00:18:21.189Z,98122.59
2023-04-25T00:19:22.902Z,98119.16
2023-04-25T00:20:25.938Z,98130.94
2023-04-25T00:21:27.637Z,98129.19
2023-04-25T00:22:29.366Z,98132.75
2023-04-25T00:23:31.197Z,98120.59
2023-04-25T00:24:32.942Z,98118.50
2023-04-25T00:25:34.654Z,98129.00
2023-04-25T00:26:37.097Z,98122.47
2023-04-25T00:27:40.270Z,98119.09
2023-04-25T00:28:42.144Z,98108.66
2023-04-25T00:29:43.921Z,98109.03
2023-04-25T00:30:45.805Z,98118.44
2023-04-25T00:31:47.581Z,98114.00
2023-04-25T00:32:50.107Z,98111.44
2023-04-25T00:33:52.131Z,98111.19
2023-04-25T00:34:54.050Z,98107.88
2023-04-25T00:35:56.419Z,98117.66
2023-04-25T00:36:58.175Z,98115.03
2023-04-25T00:38:01.184Z,98120.72
2023-04-25T00:39:03.853Z,98128.16
2023-04-25T00:40:07.317Z,98132.75
2023-04-25T00:41:09.160Z,98131.38
2023-04-25T00:42:11.220Z,98130.34
2023-04-25T00:43:12.990Z,98125.28
2023-04-25T00:44:18.119Z,98125.84
2023-04-25T00:45:20.328Z,98102.69
2023-04-25T00:46:22.049Z,98108.06
2023-04-25T00:47:24.967Z,98108.75
2023-04-25T00:48:26.716Z,98119.13
2023-04-25T00:49:28.587Z,98112.69
2023-04-25T00:50:30.870Z,98115.41
2023-04-25T00:51:34.096Z,98114.09
2023-04-25T00:52:36.503Z,98113.53
2023-04-25T00:53:38.265Z,98113.41
2023-04-25T00:54:40.039Z,98114.16
2023-04-25T00:55:41.756Z,98113.34
2023-04-25T00:56:43.637Z,98114.41
2023-04-25T00:57:45.459Z,98109.50
2023-04-25T00:58:47.345Z,98116.66
2023-04-25T00:59:51.881Z,98101.34
2023-04-25T01:00:54.080Z,98110.72
2023-04-25T01:01:56.124Z,98106.47
2023-04-25T01:02:58.019Z,98111.44
2023-04-25T01:04:02.162Z,98110.25
2023-04-25T01:05:05.021Z,98120.63
2023-04-25T01:06:08.581Z,98123.28
2023-04-25T01:07:11.409Z,98120.88
2023-04-25T01:08:14.255Z,98109.69
2023-04-25T01:09:16.044Z,98122.06
2023-04-25T01:10:17.795Z,98120.44
2023-04-25T01:11:19.495Z,98119.50
2023-04-25T01:12:21.317Z,98117.97
2023-04-25T01:13:25.849Z,98125.41
2023-04-25T01:14:27.736Z,98122.28
2023-04-25T01:15:29.688Z,98116.41
2023-04-25T01:16:31.588Z,98123.97
2023-04-25T01:17:35.639Z,98135.19
2023-04-25T01:18:40.072Z,98126.66
2023-04-25T01:19:41.887Z,98120.88
2023-04-25T01:20:44.463Z,98122.50
2023-04-25T01:21:47.046Z,98112.13
2023-04-25T01:22:49.130Z,98127.59
2023-04-25T01:23:51.496Z,98123.91
2023-04-25T01:24:53.838Z,98121.81
2023-04-25T01:25:56.120Z,98110.34
2023-04-25T01:26:58.694Z,98108.56
2023-04-25T01:28:01.152Z,98114.34
2023-04-25T01:29:03.056Z,98111.69
2023-04-25T01:30:05.706Z,98117.88
2023-04-25T01:31:07.561Z,98112.31
2023-04-25T01:32:10.677Z,98123.50
2023-04-25T01:33:15.260Z,98113.63
2023-04-25T01:34:17.006Z,98113.13
2023-04-25T01:35:18.736Z,98116.03
2023-04-25T01:36:21.104Z,98123.19
2023-04-25T01:37:23.537Z,98116.50
2023-04-25T01:38:25.764Z,98122.88
2023-04-25T01:39:27.691Z,98124.72
2023-04-25T01:40:29.389Z,98115.66
2023-04-25T01:41:31.443Z,98121.25
2023-04-25T01:42:34.265Z,98120.44
2023-04-25T01:43:36.725Z,98119.41
2023-04-25T01:44:38.426Z,98123.09
2023-04-25T01:45:42.942Z,98119.91
2023-04-25T01:46:44.845Z,98112.44
2023-04-25T01:47:50.311Z,98118.78
2023-04-25T01:48:52.087Z,98093.75
2023-04-25T01:49:53.860Z,98104.16
2023-04-25T01:50:55.564Z,98097.44
2023-04-25T01:51:57.368Z,98099.34
2023-04-25T01:52:59.182Z,98106.25
2023-04-25T01:54:01.793Z,98102.00
2023-04-25T01:55:03.790Z,98095.88
2023-04-25T01:56:06.172Z,98109.66
2023-04-25T01:57:07.880Z,98112.03
2023-04-25T01:58:10.831Z,98116.06
2023-04-25T01:59:12.770Z,98108.63
2023-04-25T02:00:14.742Z,98110.72
2023-04-25T02:01:16.574Z,98112.81
2023-04-25T02:02:18.384Z,98108.53
2023-04-25T02:03:20.515Z,98111.19
2023-04-25T02:04:22.492Z,98110.63
2023-04-25T02:05:24.271Z,98102.06
2023-04-25T02:06:26.064Z,98107.59
2023-04-25T02:07:28.021Z,98094.34
2023-04-25T02:08:29.760Z,98106.84
2023-04-25T02:09:31.498Z,98085.63
2023-04-25T02:10:33.664Z,98075.47
2023-04-25T02:11:35.418Z,98086.06
2023-04-25T02:12:37.394Z,98087.59
2023-04-25T02:13:39.127Z,98090.00
2023-04-25T02:14:41.077Z,98088.63
2023-04-25T02:15:42.968Z,98091.94
2023-04-25T02:16:47.725Z,98101.31
2023-04-25T02:17:49.960Z,98094.72
2023-04-25T02:18:53.866Z,98094.16
2023-04-25T02:19:55.581Z,98098.41
2023-04-25T02:20:57.308Z,98100.22
2023-04-25T02:21:59.334Z,98103.66
2023-04-25T02:23:01.272Z,98096.91
2023-04-25T02:24:04.042Z,98101.72
2023-04-25T02:25:06.325Z,98099.88
2023-04-25T02:26:08.144Z,98098.59
2023-04-25T02:27:09.893Z,98091.44
2023-04-25T02:28:12.165Z,98098.59
2023-04-25T02:29:16.244Z,98090.94
2023-04-25T02:30:18.181Z,98086.19
2023-04-25T02:31:20.023Z,98087.31
2023-04-25T02:32:21.847Z,98085.22
2023-04-25T02:33:23.584Z,98080.50
2023-04-25T02:34:25.387Z,98086.88
2023-04-25T02:35:27.162Z,98094.38
2023-04-25T02:36:30.942Z,98083.44
2023-04-25T02:37:35.607Z,98089.06
2023-04-25T02:38:37.373Z,98080.06
2023-04-25T02:39:39.076Z,98075.78
2023-04-25T02:40:41.752Z,98080.84
2023-04-25T02:41:43.502Z,98076.34
2023-04-25T02:42:46.877Z,98085.91
2023-04-25T02:43:48.968Z,98084.31
2023-04-25T02:44:50.958Z,98076.34
2023-04-25T02:45:52.729Z,98072.34
2023-04-25T02:46:54.687Z,98085.69
2023-04-25T02:47:56.472Z,98084.88
2023-04-25T02:48:58.215Z,98061.84
2023-04-25T02:49:59.960Z,98088.00
2023-04-25T02:51:01.709Z,98080.22
2023-04-25T02:52:03.500Z,98093.31
2023-04-25T02:53:05.275Z,98092.28
2023-04-25T02:54:07.673Z,98086.16
2023-04-25T02:55:09.936Z,98080.06
2023-04-25T02:56:11.811Z,98076.00
2023-04-25T02:57:13.540Z,98080.53
2023-04-25T02:58:16.637Z,98092.75
2023-04-25T02:59:18.352Z,98089.84
2023-04-25T03:00:20.454Z,98094.38
2023-04-25T03:01:22.436Z,98098.88
2023-04-25T03:02:24.331Z,98105.53
2023-04-25T03:03:26.172Z,98111.63
2023-04-25T03:04:28.167Z,98106.56
2023-04-25T03:05:29.980Z,98092.94
2023-04-25T03:06:31.918Z,98104.16
2023-04-25T03:07:33.622Z,98098.88
2023-04-25T03:08:35.734Z,98094.00
2023-04-25T03:09:37.440Z,98096.41
2023-04-25T03:10:39.791Z,98104.34
2023-04-25T03:11:41.559Z,98106.44
2023-04-25T03:12:43.271Z,98096.31
2023-04-25T03:13:44.981Z,98106.69
2023-04-25T03:14:46.796Z,98104.03
2023-04-25T03:15:48.610Z,98102.44
2023-04-25T03:16:50.338Z,98097.94
2023-04-25T03:17:52.122Z,98101.94
2023-04-25T03:18:53.866Z,98101.94
2023-04-25T03:19:56.285Z,98099.06
2023-04-25T03:20:58.099Z,98095.84
2023-04-25T03:21:59.851Z,98098.00
2023-04-25T03:23:01.617Z,98100.16
2023-04-25T03:24:05.453Z,98103.13
2023-04-25T03:25:08.099Z,98097.56
2023-04-25T03:26:09.818Z,98104.00
2023-04-25T03:27:11.545Z,98092.28
2023-04-25T03:28:13.325Z,98097.09
2023-04-25T03:29:15.046Z,98090.97
2023-04-25T03:30:16.746Z,98094.97
2023-04-25T03:31:18.520Z,98093.91
2023-04-25T03:32:20.371Z,98092.88
2023-04-25T03:33:23.070Z,98095.03
2023-04-25T03:34:25.228Z,98091.03
2023-04-25T03:35:27.036Z,98091.84
2023-04-25T03:36:28.776Z,98086.75
2023-04-25T03:37:30.628Z,98087.56
2023-04-25T03:38:32.408Z,98080.38
2023-04-25T03:39:34.151Z,98079.06
2023-04-25T03:40:35.881Z,98081.19
2023-04-25T03:41:37.650Z,98078.69
2023-04-25T03:42:39.332Z,98066.22
2023-04-25T03:43:41.063Z,98076.03
2023-04-25T03:44:42.758Z,98079.50
2023-04-25T03:45:44.535Z,98085.28
2023-04-25T03:46:46.293Z,98077.94
2023-04-25T03:47:48.131Z,98071.44
2023-04-25T03:48:49.993Z,98065.19
2023-04-25T03:49:52.898Z,98067.22
2023-04-25T03:50:55.645Z,98060.53
2023-04-25T03:51:57.426Z,98063.78
2023-04-25T03:52:59.148Z,98055.47
2023-04-25T03:54:01.001Z,98060.22
2023-04-25T03:55:02.750Z,98061.00
2023-04-25T03:56:04.821Z,98059.06
2023-04-25T03:57:06.526Z,98056.03
2023-04-25T03:58:09.378Z,98071.47
2023-04-25T03:59:11.107Z,98064.88
2023-04-25T04:00:13.544Z,98053.19
2023-04-25T04:01:15.326Z,98057.97
2023-04-25T04:02:17.207Z,98037.09
2023-04-25T04:03:19.171Z,98056.47
2023-04-25T04:04:21.278Z,98058.63
2023-04-25T04:05:23.495Z,98061.66
2023-04-25T04:06:25.314Z,98064.00
2023-04-25T04:07:27.273Z,98066.97
2023-04-25T04:08:28.978Z,98063.25
2023-04-25T04:09:30.771Z,98057.25
2023-04-25T04:10:32.480Z,98045.28
2023-04-25T04:11:34.275Z,98053.47
2023-04-25T04:12:36.062Z,98058.06
2023-04-25T04:13:37.751Z,98053.06
2023-04-25T04:14:39.449Z,98057.66
2023-04-25T04:15:41.314Z,98067.03
2023-04-25T04:16:43.118Z,98055.16
2023-04-25T04:17:44.892Z,98060.22
2023-04-25T04:18:47.173Z,98059.38
2023-04-25T04:19:48.906Z,98053.28
2023-04-25T04:20:50.934Z,98063.56
2023-04-25T04:21:52.682Z,98072.19
2023-04-25T04:22:54.397Z,98064.88
2023-04-25T04:23:56.099Z,98071.47
2023-04-25T04:24:57.941Z,98074.03
2023-04-25T04:25:59.712Z,98073.06
2023-04-25T04:27:01.442Z,98068.63
2023-04-25T04:28:03.400Z,98068.34
2023-04-25T04:29:05.253Z,98079.69
2023-04-25T04:30:07.817Z,98082.47
2023-04-25T04:31:10.537Z,98084.13
2023-04-25T04:32:12.781Z,98086.38
2023-04-25T04:33:16.215Z,98075.78
2023-04-25T04:34:19.514Z,98076.06
2023-04-25T04:35:21.324Z,98082.88
2023-04-25T04:36:24.170Z,98079.25
2023-04-25T04:37:25.927Z,98065.53
2023-04-25T04:38:27.658Z,98078.19
2023-04-25T04:39:29.960Z,98068.63
2023-04-25T04:40:32.459Z,98078.31
2023-04-25T04:41:34.371Z,98077.41
2023-04-25T04:42:37.342Z,98080.66
2023-04-25T04:43:40.604Z,98086.03
2023-04-25T04:44:42.342Z,98082.28
2023-04-25T04:45:44.249Z,98086.38
2023-04-25T04:46:46.036Z,98086.72
2023-04-25T04:47:49.763Z,98081.97
2023-04-25T04:48:51.531Z,98080.44
2023-04-25T04:49:56.015Z,98085.78
2023-04-25T04:51:00.134Z,98082.38
2023-04-25T04:52:01.996Z,98084.25
2023-04-25T04:53:05.409Z,98080.28
2023-04-25T04:54:07.284Z,98082.47
2023-04-25T04:55:09.522Z,98084.31
2023-04-25T04:56:11.324Z,98081.91
2023-04-25T04:57:13.057Z,98086.69
2023-04-25T04:58:15.353Z,98084.56
2023-04-25T04:59:18.178Z,98080.06
2023-04-25T05:00:20.016Z,98081.09
2023-04-25T05:01:24.082Z,98082.16
2023-04-25T05:02:26.664Z,98083.53
2023-04-25T05:03:28.581Z,98083.28
2023-04-25T05:04:30.685Z,98077.56
2023-04-25T05:05:32.666Z,98082.69
2023-04-25T05:06:34.371Z,98083.50
2023-04-25T05:07:36.230Z,98091.72
2023-04-25T05:08:38.040Z,98078.13
2023-04-25T05:09:39.736Z,98084.75
2023-04-25T05:10:41.569Z,98078.59
2023-04-25T05:11:43.296Z,98084.97
2023-04-25T05:12:45.339Z,98093.75
2023-04-25T05:13:47.109Z,98089.78
2023-04-25T05:14:48.798Z,98092.44
2023-04-25T05:15:50.526Z,98089.81
2023-04-25T05:16:52.366Z,98088.56
2023-04-25T05:17:54.324Z,98085.38
2023-04-25T05:18:56.024Z,98088.03
2023-04-25T05:19:58.215Z,98077.97
2023-04-25T05:20:59.935Z,98077.22
2023-04-25T05:22:01.669Z,98078.56
2023-04-25T05:23:03.701Z,98081.25
2023-04-25T05:24:05.780Z,98085.81
2023-04-25T05:25:08.053Z,98082.84
2023-04-25T05:26:14.918Z,98084.41
2023-04-25T05:27:19.841Z,98087.38
2023-04-25T05:28:22.257Z,98078.34
2023-04-25T05:29:23.986Z,98081.31
2023-04-25T05:30:26.051Z,98080.19
2023-04-25T05:31:27.833Z,98087.97
2023-04-25T05:32:29.868Z,98081.63
2023-04-25T05:33:31.676Z,98079.28
2023-04-25T05:34:33.416Z,98075.00
2023-04-25T05:35:35.248Z,98086.22
2023-04-25T05:36:37.578Z,98085.16
2023-04-25T05:37:39.306Z,98083.75
2023-04-25T05:38:41.028Z,98079.72
2023-04-25T05:39:42.768Z,98081.31
2023-04-25T05:40:44.476Z,98079.47
2023-04-25T05:41:46.288Z,98079.72
2023-04-25T05:42:48.081Z,98074.78
2023-04-25T05:43:50.917Z,98074.59
2023-04-25T05:44:52.902Z,98077.31
2023-04-25T05:45:54.850Z,98078.91
2023-04-25T05:46:56.757Z,98071.47
2023-04-25T05:47:58.567Z,98081.56
2023-04-25T05:49:00.350Z,98084.78
2023-04-25T05:50:02.418Z,98082.44
2023-04-25T05:51:04.208Z,98082.50
2023-04-25T05:52:06.027Z,98081.22
2023-04-25T05:53:07.784Z,98084.84
2023-04-25T05:54:09.560Z,98077.81
2023-04-25T05:55:11.342Z,98081.06
2023-04-25T05:56:13.086Z,98068.84
2023-04-25T05:57:25.026Z,98079.28
2023-04-25T05:58:26.747Z,98074.19
2023-04-25T05:59:28.864Z,98071.44
2023-04-25T06:00:30.629Z,98076.06
2023-04-25T06:01:32.368Z,98068.97
2023-04-25T06:02:34.148Z,98066.00
2023-04-25T06:03:36.594Z,98070.91
2023-04-25T06:04:38.689Z,98071.53
2023-04-25T06:05:40.668Z,98076.16
2023-04-25T06:06:42.425Z,98070.09
2023-04-25T06:07:45.776Z,98071.38
2023-04-25T06:08:47.565Z,98067.09
2023-04-25T06:09:49.404Z,98061.19
2023-04-25T06:10:51.148Z,98060.19
2023-04-25T06:11:52.835Z,98063.78
2023-04-25T06:12:54.554Z,98063.16
2023-04-25T06:13:56.299Z,98062.38
2023-04-25T06:14:57.982Z,98059.94
2023-04-25T06:15:59.818Z,98066.81
2023-04-25T06:17:07.410Z,98064.16
2023-04-25T06:18:09.224Z,98052.03
2023-04-25T06:19:11.093Z,98063.94
2023-04-25T06:20:13.110Z,98060.22
2023-04-25T06:21:14.829Z,98065.59
2023-04-25T06:22:16.571Z,98067.19
2023-04-25T06:23:18.280Z,98066.06
2023-04-25T06:24:20.041Z,98058.97
2023-04-25T06:25:22.294Z,98061.81
2023-04-25T06:26:24.064Z,98064.31
2023-04-25T06:27:26.289Z,98060.09
2023-04-25T06:28:27.987Z,98064.25
2023-04-25T06:29:29.725Z,98055.22
2023-04-25T06:30:31.436Z,98054.16
2023-04-25T06:31:34.139Z,98056.69
2023-04-25T06:32:36.264Z,98055.59
2023-04-25T06:33:38.003Z,98056.06
2023-04-25T06:34:39.815Z,98058.22
2023-04-25T06:35:41.849Z,98054.47
2023-04-25T06:36:45.205Z,98059.88
2023-04-25T06:37:46.956Z,98057.72
2023-04-25T06:38:48.938Z,98055.00
2023-04-25T06:39:50.768Z,98055.88
2023-04-25T06:40:52.594Z,98056.41
2023-04-25T06:41:54.561Z,98050.06
2023-04-25T06:42:56.403Z,98051.53
2023-04-25T06:43:58.125Z,98043.84
2023-04-25T06:44:59.852Z,98049.09
2023-04-25T06:46:01.918Z,98043.13
2023-04-25T06:47:04.162Z,98050.78
2023-04-25T06:48:06.113Z,98051.81
2023-04-25T06:49:07.956Z,98050.41
2023-04-25T06:50:10.039Z,98051.56
2023-04-25T06:51:11.942Z,98049.84
2023-04-25T06:52:13.667Z,98057.13
2023-04-25T06:53:15.431Z,98053.50
2023-04-25T06:54:17.413Z,98046.56
2023-04-25T06:55:19.145Z,98043.63
2023-04-25T06:56:22.475Z,98043.63
2023-04-25T06:57:24.613Z,98054.22
2023-04-25T06:58:27.318Z,98056.66
2023-04-25T06:59:29.072Z,98051.63
2023-04-25T07:00:31.413Z,98060.38
2023-04-25T07:01:33.662Z,98059.44
2023-04-25T07:02:35.855Z,98051.28
2023-04-25T07:03:38.774Z,98048.50
2023-04-25T07:04:41.160Z,98052.50
2023-04-25T07:05:43.144Z,98048.56
2023-04-25T07:06:45.040Z,98049.91
2023-04-25T07:07:46.750Z,98055.31
2023-04-25T07:08:48.738Z,98048.88
2023-04-25T07:09:51.195Z,98053.22
2023-04-25T07:10:52.894Z,98053.22
2023-04-25T07:11:54.589Z,98052.38
2023-04-25T07:12:56.504Z,98044.53
2023-04-25T07:13:58.206Z,98042.22
2023-04-25T07:15:00.007Z,98048.69
2023-04-25T07:16:02.033Z,98046.00
2023-04-25T07:17:04.431Z,98047.84
2023-04-25T07:18:06.185Z,98043.16
2023-04-25T07:19:07.940Z,98045.44
2023-04-25T07:20:10.596Z,98037.19
2023-04-25T07:21:12.377Z,98042.00
2023-04-25T07:22:14.079Z,98043.75
2023-04-25T07:23:15.868Z,98042.16
2023-04-25T07:24:17.566Z,98044.91
2023-04-25T07:25:19.385Z,98039.34
2023-04-25T07:26:21.364Z,98044.06
2023-04-25T07:27:23.116Z,98042.91
2023-04-25T07:28:24.888Z,98039.59
2023-04-25T07:29:26.920Z,98038.94
2023-04-25T07:30:28.699Z,98043.72
2023-04-25T07:31:30.525Z,98038.94
2023-04-25T07:32:32.283Z,98034.22
2023-04-25T07:33:34.870Z,98042.34
2023-04-25T07:34:38.414Z,98037.25
2023-04-25T07:35:40.139Z,98021.13
2023-04-25T07:36:41.852Z,98039.81
2023-04-25T07:37:44.209Z,98037.59
2023-04-25T07:38:45.973Z,98034.44
2023-04-25T07:39:48.016Z,98025.28
2023-04-25T07:40:50.200Z,98031.38
2023-04-25T07:41:54.475Z,98036.53
2023-04-25T07:42:56.977Z,98030.69
2023-04-25T07:43:58.764Z,98039.91
2023-04-25T07:45:02.070Z,98035.06
2023-04-25T07:46:04.021Z,98036.66
2023-04-25T07:47:09.193Z,98022.72
2023-04-25T07:48:11.259Z,98028.44
2023-04-25T07:49:13.447Z,98030.41
2023-04-25T07:50:15.212Z,98025.47
2023-04-25T07:51:16.968Z,98025.34
2023-04-25T07:52:18.717Z,98021.97
2023-04-25T07:53:20.415Z,98025.81
2023-04-25T07:54:22.403Z,98019.63
2023-04-25T07:55:24.191Z,98024.94
2023-04-25T07:56:25.891Z,98026.03
2023-04-25T07:57:27.640Z,98018.31
2023-04-25T07:58:29.410Z,98012.72
2023-04-25T07:59:31.196Z,98015.88
2023-04-25T08:00:33.043Z,98022.34
2023-04-25T08:01:35.417Z,98020.78
2023-04-25T08:02:37.754Z,98020.16
2023-04-25T08:03:39.786Z,98018.03
2023-04-25T08:04:41.911Z,98024.47
2023-04-25T08:05:44.081Z,98022.44
2023-04-25T08:06:46.673Z,98019.38
2023-04-25T08:07:48.358Z,98024.47
2023-04-25T08:08:50.329Z,98021.13
2023-04-25T08:09:52.274Z,98021.56
2023-04-25T08:10:54.008Z,98027.63
2023-04-25T08:11:55.713Z,98019.66
2023-04-25T08:12:57.446Z,98032.31
2023-04-25T08:13:59.207Z,98025.16
2023-04-25T08:15:01.003Z,98027.56
2023-04-25T08:16:02.841Z,98024.69
2023-04-25T08:17:05.117Z,98029.03
2023-04-25T08:18:06.930Z,98029.72
2023-04-25T08:19:08.811Z,98021.00
2023-04-25T08:20:11.993Z,98032.97
2023-04-25T08:21:13.783Z,98023.00
2023-04-25T08:22:15.918Z,98027.78
2023-04-25T08:23:17.707Z,98017.50
2023-04-25T08:24:19.436Z,98026.78
2023-04-25T08:25:21.266Z,98025.28
2023-04-25T08:26:22.970Z,98026.19
2023-04-25T08:27:24.864Z,98023.47
2023-04-25T08:28:26.867Z,98021.78
2023-04-25T08:29:29.624Z,98019.84
2023-04-25T08:30:32.051Z,98014.84
2023-04-25T08:31:33.968Z,98023.28
2023-04-25T08:32:35.843Z,98022.81
2023-04-25T08:33:37.880Z,98023.13
2023-04-25T08:34:43.190Z,98031.78
2023-04-25T08:35:45.992Z,98033.84
2023-04-25T08:36:47.810Z,98025.53
2023-04-25T08:37:50.559Z,98029.81
2023-04-25T08:38:55.224Z,98030.66
2023-04-25T08:39:57.377Z,98023.50
2023-04-25T08:41:02.270Z,98023.59
2023-04-25T08:42:09.858Z,98030.47
2023-04-25T08:43:15.958Z,98031.22
2023-04-25T08:44:17.899Z,98026.50
2023-04-25T08:45:19.829Z,98028.00
2023-04-25T08:46:22.065Z,98021.75
2023-04-25T08:47:24.597Z,98029.53
2023-04-25T08:48:28.954Z,98036.16
2023-04-25T08:49:35.437Z,98042.34
2023-04-25T08:50:45.814Z,98044.31
2023-04-25T08:51:48.457Z,98045.41
2023-04-25T08:52:53.559Z,98048.34
2023-04-25T08:53:58.790Z,98041.25
2023-04-25T08:55:03.078Z,98047.28
2023-04-25T08:56:05.152Z,98041.78
2023-04-25T08:57:06.923Z,98040.59
2023-04-25T08:58:11.246Z,98030.81
2023-04-25T08:59:16.056Z,98042.91
2023-04-25T09:00:19.521Z,98036.59
2023-04-25T09:01:21.463Z,98036.00
2023-04-25T09:02:23.354Z,98042.75
2023-04-25T09:03:25.262Z,98038.50
2023-04-25T09:04:27.179Z,98039.13
2023-04-25T09:05:30.251Z,98048.78
2023-04-25T09:06:32.966Z,98047.28
2023-04-25T09:07:34.748Z,98046.13
2023-04-25T09:08:37.818Z,98058.06
2023-04-25T09:09:40.438Z,98054.44
2023-04-25T09:10:42.444Z,98035.38
2023-04-25T09:11:44.270Z,98027.47
2023-04-25T09:12:46.276Z,98045.09
2023-04-25T09:13:48.036Z,98038.13
2023-04-25T09:15:08.086Z,98039.25
2023-04-25T09:16:09.888Z,98042.25
2023-04-25T09:17:11.878Z,98035.09
2023-04-25T09:18:29.794Z,98043.66
2023-04-25T09:19:42.017Z,98044.41
2023-04-25T09:21:00.884Z,98044.72
2023-04-25T09:22:05.890Z,98046.91
2023-04-25T09:23:08.392Z,98037.38
2023-04-25T09:24:10.189Z,98035.41
2023-04-25T09:25:13.579Z,98042.97
2023-04-25T09:26:18.125Z,98032.28
2023-04-25T09:27:24.097Z,98035.69
2023-04-25T09:28:31.132Z,98038.06
2023-04-25T09:29:34.807Z,98029.47
2023-04-25T09:30:37.955Z,98038.38
2023-04-25T09:31:39.834Z,98032.72
2023-04-25T09:32:46.752Z,98033.03
2023-04-25T09:33:48.778Z,98026.72
2023-04-25T09:34:52.982Z,98038.84
2023-04-25T09:35:56.711Z,98032.06
2023-04-25T09:37:02.876Z,98027.66
2023-04-25T09:38:12.868Z,98031.13
2023-04-25T09:39:17.591Z,98023.34
2023-04-25T09:40:19.909Z,98027.81
2023-04-25T09:41:25.422Z,98022.41
2023-04-25T09:42:29.869Z,98025.88
2023-04-25T09:43:31.709Z,98023.03
2023-04-25T09:44:33.506Z,98030.63
2023-04-25T09:45:42.939Z,98024.44
2023-04-25T09:46:44.703Z,98022.53
2023-04-25T09:47:47.319Z,98021.88
2023-04-25T09:48:51.279Z,98021.41
2023-04-25T09:49:54.059Z,98022.94
2023-04-25T09:51:12.317Z,98024.69
2023-04-25T09:52:26.050Z,98010.16
2023-04-25T09:53:28.371Z,98010.31
2023-04-25T09:54:30.067Z,98011.25
2023-04-25T09:55:33.419Z,98005.25
2023-04-25T09:56:38.427Z,98004.97
2023-04-25T09:57:41.009Z,98002.75
2023-04-25T09:58:43.244Z,98000.69
2023-04-25T09:59:49.745Z,97998.97
2023-04-25T10:00:52.591Z,98004.34
2023-04-25T10:01:57.490Z,97997.69
2023-04-25T10:03:02.551Z,98000.88
2023-04-25T10:04:07.873Z,97996.59
2023-04-25T10:05:11.827Z,97989.50
2023-04-25T10:06:20.169Z,97992.25
2023-04-25T10:07:30.262Z,97980.69
2023-04-25T10:08:39.070Z,97993.09
2023-04-25T10:09:41.896Z,97985.00
2023-04-25T10:10:44.203Z,97986.59
2023-04-25T10:11:49.105Z,97984.06
2023-04-25T10:12:50.976Z,97976.34
2023-04-25T10:13:53.771Z,97975.84
2023-04-25T10:14:56.352Z,97971.56
2023-04-25T10:16:03.620Z,97966.03
2023-04-25T10:17:05.911Z,97969.56
2023-04-25T10:18:08.195Z,97965.56
2023-04-25T10:19:12.046Z,97958.59
2023-04-25T10:20:14.354Z,97954.94
2023-04-25T10:21:17.481Z,97947.81
2023-04-25T10:22:27.266Z,97950.16
2023-04-25T10:23:31.581Z,97950.56
2023-04-25T10:24:33.545Z,97943.97
2023-04-25T10:25:35.934Z,97937.31
2023-04-25T10:26:38.074Z,97929.00
2023-04-25T10:27:40.749Z,97929.09
2023-04-25T10:29:03.730Z,97931.72
2023-04-25T10:30:07.575Z,97924.75
2023-04-25T10:31:09.932Z,97928.78
2023-04-25T10:32:11.837Z,97919.13
2023-04-25T10:33:22.371Z,97914.09
2023-04-25T10:34:44.108Z,97918.06
2023-04-25T10:35:46.915Z,97908.00
2023-04-25T10:36:53.414Z,97912.78
2023-04-25T10:38:01.325Z,97907.47
2023-04-25T10:39:08.635Z,97896.72
2023-04-25T10:40:11.476Z,97897.31
2023-04-25T10:41:14.490Z,97889.63
2023-04-25T10:42:16.528Z,97896.19
2023-04-25T10:43:46.862Z,97899.25
2023-04-25T10:45:08.214Z,97891.28
2023-04-25T10:46:27.529Z,97892.09
2023-04-25T10:47:46.066Z,97879.44
2023-04-25T10:48:52.148Z,97883.47
2023-04-25T10:49:53.900Z,97883.69
2023-04-25T10:51:12.257Z,97886.63
2023-04-25T10:52:28.149Z,97875.75
2023-04-25T10:53:34.198Z,97876.16
2023-04-25T10:54:36.107Z,97884.22
2023-04-25T10:55:54.233Z,97874.34
2023-04-25T10:56:56.050Z,97867.91
2023-04-25T10:59:14.899Z,97875.50
2023-04-25T11:00:25.768Z,97869.44
2023-04-25T11:01:38.138Z,97869.09
2023-04-25T11:02:46.802Z,97857.81
2023-04-25T11:03:51.596Z,97868.25
2023-04-25T11:04:54.815Z,97870.56
2023-04-25T11:05:58.439Z,97867.59
2023-04-25T11:07:24.963Z,97872.97
2023-04-25T11:08:48.816Z,97867.47
2023-04-25T11:09:51.227Z,97861.69
2023-04-25T11:10:53.000Z,97862.16
2023-04-25T11:12:00.193Z,97861.00
2023-04-25T11:13:02.454Z,97861.25
2023-04-25T11:14:04.228Z,97854.41
2023-04-25T11:15:08.448Z,97856.91
2023-04-25T11:16:13.141Z,97857.66
2023-04-25T11:17:15.490Z,97853.03
2023-04-25T11:18:18.163Z,97857.13
2023-04-25T11:19:21.549Z,97852.69
2023-04-25T11:20:27.158Z,97859.16
2023-04-25T11:21:29.142Z,97850.03
2023-04-25T11:22:31.144Z,97860.16
2023-04-25T11:23:32.868Z,97856.53
2023-04-25T11:24:36.455Z,97852.66
2023-04-25T11:25:39.332Z,97855.06
2023-04-25T11:26:47.619Z,97853.69
2023-04-25T11:27:53.259Z,97858.56
2023-04-25T11:29:00.408Z,97861.50
2023-04-25T11:30:16.608Z,97846.06
2023-04-25T11:31:22.836Z,97850.72
2023-04-25T11:32:25.632Z,97861.06
2023-04-25T11:33:29.385Z,97849.97
2023-04-25T11:34:34.075Z,97857.69
2023-04-25T11:35:36.177Z,97854.03
2023-04-25T11:36:39.718Z,97854.16
2023-04-25T11:37:42.659Z,97855.94
2023-04-25T11:38:44.532Z,97854.47
2023-04-25T11:39:47.581Z,97850.78
2023-04-25T11:40:55.604Z,97839.84
2023-04-25T11:41:57.478Z,97840.22
2023-04-25T11:43:02.048Z,97838.81
2023-04-25T11:44:04.437Z,97842.13
2023-04-25T11:45:07.521Z,97841.03
2023-04-25T11:46:09.355Z,97837.88
2023-04-25T11:47:11.301Z,97832.50
2023-04-25T11:48:13.115Z,97838.66
2023-04-25T11:49:16.325Z,97830.72
2023-04-25T11:50:18.125Z,97822.94
2023-04-25T11:51:19.910Z,97828.81
2023-04-25T11:52:21.627Z,97825.03
2023-04-25T11:53:25.886Z,97824.09
2023-04-25T11:54:27.587Z,97822.03
2023-04-25T11:55:31.560Z,97819.50
2023-04-25T11:56:33.765Z,97817.44
2023-04-25T11:57:35.780Z,97809.53
2023-04-25T11:58:58.769Z,97820.91
2023-04-25T12:00:19.150Z,97814.84
2023-04-25T12:01:35.220Z,97810.69
2023-04-25T12:02:37.799Z,97804.91
2023-04-25T12:03:47.650Z,97796.75
2023-04-25T12:04:49.899Z,97804.19
2023-04-25T12:05:51.994Z,97797.88
2023-04-25T12:06:56.116Z,97794.59
2023-04-25T12:07:58.481Z,97796.47
2023-04-25T12:09:05.258Z,97795.78
2023-04-25T12:10:15.018Z,97795.56
2023-04-25T12:11:23.164Z,97794.38
2023-04-25T12:12:29.098Z,97789.69
2023-04-25T12:13:32.831Z,97784.94
2023-04-25T12:14:36.794Z,97781.31
2023-04-25T12:15:41.966Z,97775.75
2023-04-25T12:16:45.890Z,97774.81
2023-04-25T12:17:48.958Z,97775.44
2023-04-25T12:18:54.008Z,97770.25
2023-04-25T12:19:55.861Z,97769.84
2023-04-25T12:20:57.666Z,97771.13
2023-04-25T12:22:20.311Z,97768.94
2023-04-25T12:23:29.382Z,97768.75